sensor_id;sensor_type;location;lat;lon;timestamp;pressure;altitude;pressure_sealevel;temperature;humidity
73633;BME280;61927;50.080;14.418;2022-10-16T00:01:55;99377.06;;;14.73;84.56
73633;BME280;61927;50.080;14.418;2022-10-16T00:04:21;99367.09;;;14.75;84.49
73633;BME280;61927;50.080;14.418;2022-10-16T00:06:46;99366.13;;;14.76;84.27
73633;BME280;61927;50.080;14.418;2022-10-16T00:09:13;99358.25;;;14.75;84.30
73633;BME280;61927;50.080;14.418;2022-10-16T00:11:40;99361.03;;;14.73;84.46
73633;BME280;61927;50.080;14.418;2022-10-16T00:14:09;99357.66;;;14.71;84.62
73633;BME280;61927;50.080;14.418;2022-10-16T00:16:36;99367.34;;;14.72;84.51
73633;BME280;61927;50.080;14.418;2022-10-16T00:19:02;99371.38;;;14.67;84.86
73633;BME280;61927;50.080;14.418;2022-10-16T00:21:29;99369.66;;;14.66;84.36
73633;BME280;61927;50.080;14.418;2022-10-16T00:23:58;99370.03;;;14.61;85.40
73633;BME280;61927;50.080;14.418;2022-10-16T00:26:25;99369.78;;;14.64;85.08
73633;BME280;61927;50.080;14.418;2022-10-16T00:28:51;99379.97;;;14.70;84.96
73633;BME280;61927;50.080;14.418;2022-10-16T00:31:19;99375.25;;;14.74;84.93
73633;BME280;61927;50.080;14.418;2022-10-16T00:33:45;99376.31;;;14.82;84.47
73633;BME280;61927;50.080;14.418;2022-10-16T00:36:12;99380.69;;;14.83;84.19
73633;BME280;61927;50.080;14.418;2022-10-16T00:38:39;99380.22;;;14.78;84.33
73633;BME280;61927;50.080;14.418;2022-10-16T00:41:07;99386.53;;;14.77;84.37
73633;BME280;61927;50.080;14.418;2022-10-16T00:46:09;99403.78;;;14.84;84.10
73633;BME280;61927;50.080;14.418;2022-10-16T00:48:36;99406.56;;;14.83;84.23
73633;BME280;61927;50.080;14.418;2022-10-16T00:51:02;99400.50;;;14.81;84.25
73633;BME280;61927;50.080;14.418;2022-10-16T00:53:30;99393.22;;;14.83;84.05
73633;BME280;61927;50.080;14.418;2022-10-16T00:55:55;99392.97;;;14.86;84.08
73633;BME280;61927;50.080;14.418;2022-10-16T00:58:21;99392.97;;;14.86;83.95
73633;BME280;61927;50.080;14.418;2022-10-16T01:00:47;99395.88;;;14.83;83.94
73633;BME280;61927;50.080;14.418;2022-10-16T01:03:28;99394.06;;;14.83;84.11
73633;BME280;61927;50.080;14.418;2022-10-16T01:08:34;99394.78;;;14.85;83.99
73633;BME280;61927;50.080;14.418;2022-10-16T01:11:22;99385.06;;;14.84;83.87
73633;BME280;61927;50.080;14.418;2022-10-16T01:13:50;99390.53;;;14.83;83.79
73633;BME280;61927;50.080;14.418;2022-10-16T01:16:41;99387.38;;;14.78;83.97
73633;BME280;61927;50.080;14.418;2022-10-16T01:19:21;99391.50;;;14.71;84.10
73633;BME280;61927;50.080;14.418;2022-10-16T01:21:53;99398.31;;;14.64;84.38
73633;BME280;61927;50.080;14.418;2022-10-16T01:24:46;99396.13;;;14.58;84.98
73633;BME280;61927;50.080;14.418;2022-10-16T01:27:21;99399.78;;;14.57;84.86
73633;BME280;61927;50.080;14.418;2022-10-16T01:30:26;99400.97;;;14.52;84.94
73633;BME280;61927;50.080;14.418;2022-10-16T01:33:04;99400.75;;;14.56;84.95
73633;BME280;61927;50.080;14.418;2022-10-16T01:35:36;99393.22;;;14.61;84.48
73633;BME280;61927;50.080;14.418;2022-10-16T01:38:06;99394.44;;;14.57;84.56
73633;BME280;61927;50.080;14.418;2022-10-16T01:40:34;99395.03;;;14.49;84.93
73633;BME280;61927;50.080;14.418;2022-10-16T01:43:24;99395.78;;;14.51;84.92
73633;BME280;61927;50.080;14.418;2022-10-16T01:45:51;99400.00;;;14.53;85.09
73633;BME280;61927;50.080;14.418;2022-10-16T01:48:18;99399.91;;;14.55;84.93
73633;BME280;61927;50.080;14.418;2022-10-16T01:50:53;99398.94;;;14.56;84.72
73633;BME280;61927;50.080;14.418;2022-10-16T01:53:20;99396.38;;;14.54;85.08
73633;BME280;61927;50.080;14.418;2022-10-16T01:55:47;99399.66;;;14.58;84.93
73633;BME280;61927;50.080;14.418;2022-10-16T01:58:14;99396.13;;;14.58;84.58
73633;BME280;61927;50.080;14.418;2022-10-16T02:00:43;99401.84;;;14.53;84.75
73633;BME280;61927;50.080;14.418;2022-10-16T02:03:11;99400.88;;;14.54;85.05
73633;BME280;61927;50.080;14.418;2022-10-16T02:05:45;99402.69;;;14.53;84.99
73633;BME280;61927;50.080;14.418;2022-10-16T02:08:12;99398.94;;;14.56;84.69
73633;BME280;61927;50.080;14.418;2022-10-16T02:10:38;99400.88;;;14.54;84.94
73633;BME280;61927;50.080;14.418;2022-10-16T02:15:32;99395.78;;;14.51;84.85
73633;BME280;61927;50.080;14.418;2022-10-16T02:17:58;99392.50;;;14.47;85.16
73633;BME280;61927;50.080;14.418;2022-10-16T02:20:27;99396.25;;;14.45;85.17
73633;BME280;61927;50.080;14.418;2022-10-16T02:22:56;99393.81;;;14.42;85.25
73633;BME280;61927;50.080;14.418;2022-10-16T02:25:26;99389.53;;;14.39;85.63
73633;BME280;61927;50.080;14.418;2022-10-16T02:28:02;99381.53;;;14.39;85.30
73633;BME280;61927;50.080;14.418;2022-10-16T02:30:34;99378.25;;;14.36;85.28
73633;BME280;61927;50.080;14.418;2022-10-16T02:33:04;99379.22;;;14.35;85.57
73633;BME280;61927;50.080;14.418;2022-10-16T02:35:32;99384.56;;;14.35;85.36
73633;BME280;61927;50.080;14.418;2022-10-16T02:37:58;99389.53;;;14.39;85.17
73633;BME280;61927;50.080;14.418;2022-10-16T02:40:25;99393.91;;;14.40;85.25
73633;BME280;61927;50.080;14.418;2022-10-16T02:42:52;99387.72;;;14.40;85.15
73633;BME280;61927;50.080;14.418;2022-10-16T02:45:19;99398.69;;;14.48;84.66
73633;BME280;61927;50.080;14.418;2022-10-16T02:47:44;99395.16;;;14.47;84.54
73633;BME280;61927;50.080;14.418;2022-10-16T02:50:10;99406.81;;;14.46;84.56
73633;BME280;61927;50.080;14.418;2022-10-16T02:52:35;99410.69;;;14.42;84.78
73633;BME280;61927;50.080;14.418;2022-10-16T02:55:01;99397.94;;;14.46;84.48
73633;BME280;61927;50.080;14.418;2022-10-16T02:57:27;99402.69;;;14.42;84.92
73633;BME280;61927;50.080;14.418;2022-10-16T02:59:53;99407.91;;;14.44;84.48
73633;BME280;61927;50.080;14.418;2022-10-16T03:02:18;99405.34;;;14.42;84.57
73633;BME280;61927;50.080;14.418;2022-10-16T03:04:44;99407.66;;;14.47;84.56
73633;BME280;61927;50.080;14.418;2022-10-16T03:07:09;99418.34;;;14.47;84.37
73633;BME280;61927;50.080;14.418;2022-10-16T03:09:35;99425.50;;;14.46;84.28
73633;BME280;61927;50.080;14.418;2022-10-16T03:12:01;99431.19;;;14.42;84.65
73633;BME280;61927;50.080;14.418;2022-10-16T03:14:26;99432.91;;;14.43;84.66
73633;BME280;61927;50.080;14.418;2022-10-16T03:16:52;99441.88;;;14.42;84.67
73633;BME280;61927;50.080;14.418;2022-10-16T03:19:17;99436.75;;;14.39;84.61
73633;BME280;61927;50.080;14.418;2022-10-16T03:21:43;99443.56;;;14.43;84.86
73633;BME280;61927;50.080;14.418;2022-10-16T03:24:09;99445.28;;;14.44;84.36
73633;BME280;61927;50.080;14.418;2022-10-16T03:26:35;99459.13;;;14.49;84.32
73633;BME280;61927;50.080;14.418;2022-10-16T03:29:01;99445.88;;;14.47;84.19
73633;BME280;61927;50.080;14.418;2022-10-16T03:31:29;99449.28;;;14.49;84.14
73633;BME280;61927;50.080;14.418;2022-10-16T03:33:55;99447.22;;;14.53;84.02
73633;BME280;61927;50.080;14.418;2022-10-16T03:36:21;99449.66;;;14.56;84.04
73633;BME280;61927;50.080;14.418;2022-10-16T03:38:46;99456.47;;;14.60;83.93
73633;BME280;61927;50.080;14.418;2022-10-16T03:41:12;99458.41;;;14.58;83.81
73633;BME280;61927;50.080;14.418;2022-10-16T03:43:37;99459.25;;;14.59;83.83
73633;BME280;61927;50.080;14.418;2022-10-16T03:46:03;99456.69;;;14.57;84.14
73633;BME280;61927;50.080;14.418;2022-10-16T03:48:29;99455.84;;;14.57;84.03
73633;BME280;61927;50.080;14.418;2022-10-16T03:50:54;99453.91;;;14.59;84.28
73633;BME280;61927;50.080;14.418;2022-10-16T03:53:21;99450.50;;;14.57;84.43
73633;BME280;61927;50.080;14.418;2022-10-16T03:55:47;99446.88;;;14.58;84.40
73633;BME280;61927;50.080;14.418;2022-10-16T03:58:12;99448.81;;;14.56;84.38
73633;BME280;61927;50.080;14.418;2022-10-16T04:00:42;99440.91;;;14.54;84.50
73633;BME280;61927;50.080;14.418;2022-10-16T04:03:08;99441.03;;;14.52;84.70
73633;BME280;61927;50.080;14.418;2022-10-16T04:05:34;99436.78;;;14.50;84.75
73633;BME280;61927;50.080;14.418;2022-10-16T04:07:59;99444.56;;;14.53;84.99
73633;BME280;61927;50.080;14.418;2022-10-16T04:10:25;99448.56;;;14.59;84.82
73633;BME280;61927;50.080;14.418;2022-10-16T04:12:51;99463.50;;;14.61;84.66
73633;BME280;61927;50.080;14.418;2022-10-16T04:15:16;99471.75;;;14.58;84.84
73633;BME280;61927;50.080;14.418;2022-10-16T04:17:42;99478.31;;;14.54;85.05
73633;BME280;61927;50.080;14.418;2022-10-16T04:20:08;99482.19;;;14.50;85.07
73633;BME280;61927;50.080;14.418;2022-10-16T04:22:33;99488.38;;;14.50;85.44
73633;BME280;61927;50.080;14.418;2022-10-16T04:24:59;99493.59;;;14.52;85.11
73633;BME280;61927;50.080;14.418;2022-10-16T04:27:25;99491.66;;;14.54;85.32
73633;BME280;61927;50.080;14.418;2022-10-16T04:29:50;99490.91;;;14.52;85.34
73633;BME280;61927;50.080;14.418;2022-10-16T04:32:16;99496.63;;;14.47;85.61
73633;BME280;61927;50.080;14.418;2022-10-16T04:34:41;99496.72;;;14.46;85.70
73633;BME280;61927;50.080;14.418;2022-10-16T04:37:07;99493.81;;;14.49;85.37
73633;BME280;61927;50.080;14.418;2022-10-16T04:39:33;99491.78;;;14.52;85.40
73633;BME280;61927;50.080;14.418;2022-10-16T04:41:58;99494.31;;;14.54;85.41
73633;BME280;61927;50.080;14.418;2022-10-16T04:44:24;99489.72;;;14.56;85.19
73633;BME280;61927;50.080;14.418;2022-10-16T04:46:52;99491.41;;;14.57;85.09
73633;BME280;61927;50.080;14.418;2022-10-16T04:49:18;99497.47;;;14.59;84.93
73633;BME280;61927;50.080;14.418;2022-10-16T04:51:43;99501.25;;;14.57;85.06
73633;BME280;61927;50.080;14.418;2022-10-16T04:54:09;99499.66;;;14.54;85.08
73633;BME280;61927;50.080;14.418;2022-10-16T04:56:35;99509.13;;;14.58;85.33
73633;BME280;61927;50.080;14.418;2022-10-16T04:59:09;99504.75;;;14.57;85.58
73633;BME280;61927;50.080;14.418;2022-10-16T05:01:34;99506.81;;;14.53;85.08
73633;BME280;61927;50.080;14.418;2022-10-16T05:04:00;99505.00;;;14.54;85.34
73633;BME280;61927;50.080;14.418;2022-10-16T05:06:25;99485.81;;;14.49;85.62
73633;BME280;61927;50.080;14.418;2022-10-16T05:08:51;99490.19;;;14.50;85.86
73633;BME280;61927;50.080;14.418;2022-10-16T05:11:17;99484.38;;;14.56;85.49
73633;BME280;61927;50.080;14.418;2022-10-16T05:13:42;99479.16;;;14.54;85.56
73633;BME280;61927;50.080;14.418;2022-10-16T05:16:08;99480.84;;;14.56;85.72
73633;BME280;61927;50.080;14.418;2022-10-16T05:18:33;99478.31;;;14.54;85.71
73633;BME280;61927;50.080;14.418;2022-10-16T05:20:59;99490.69;;;14.55;85.61
73633;BME280;61927;50.080;14.418;2022-10-16T05:23:24;99488.13;;;14.53;85.86
73633;BME280;61927;50.080;14.418;2022-10-16T05:25:55;99499.06;;;14.50;85.98
73633;BME280;61927;50.080;14.418;2022-10-16T05:28:21;99500.50;;;14.54;85.84
73633;BME280;61927;50.080;14.418;2022-10-16T05:30:46;99505.63;;;14.58;85.85
73633;BME280;61927;50.080;14.418;2022-10-16T05:33:12;99516.19;;;14.59;86.06
73633;BME280;61927;50.080;14.418;2022-10-16T05:35:38;99517.28;;;14.57;85.97
73633;BME280;61927;50.080;14.418;2022-10-16T05:38:04;99515.44;;;14.57;85.67
73633;BME280;61927;50.080;14.418;2022-10-16T05:40:29;99524.19;;;14.59;85.86
73633;BME280;61927;50.080;14.418;2022-10-16T05:42:55;99541.06;;;14.60;85.55
73633;BME280;61927;50.080;14.418;2022-10-16T05:45:21;99537.53;;;14.59;85.67
73633;BME280;61927;50.080;14.418;2022-10-16T05:47:46;99530.25;;;14.61;85.21
73633;BME280;61927;50.080;14.418;2022-10-16T05:50:12;99536.34;;;14.63;85.17
73633;BME280;61927;50.080;14.418;2022-10-16T05:52:37;99527.25;;;14.66;84.78
73633;BME280;61927;50.080;14.418;2022-10-16T05:55:03;99527.34;;;14.64;85.14
73633;BME280;61927;50.080;14.418;2022-10-16T05:57:29;99526.50;;;14.64;84.54
73633;BME280;61927;50.080;14.418;2022-10-16T05:59:55;99524.81;;;14.63;85.17
73633;BME280;61927;50.080;14.418;2022-10-16T06:02:21;99533.06;;;14.60;84.97
73633;BME280;61927;50.080;14.418;2022-10-16T06:04:46;99528.69;;;14.59;85.07
73633;BME280;61927;50.080;14.418;2022-10-16T06:07:12;99534.41;;;14.65;84.65
73633;BME280;61927;50.080;14.418;2022-10-16T06:09:37;99542.53;;;14.64;85.00
73633;BME280;61927;50.080;14.418;2022-10-16T06:12:03;99548.00;;;14.62;85.17
73633;BME280;61927;50.080;14.418;2022-10-16T06:14:29;99550.78;;;14.61;85.17
73633;BME280;61927;50.080;14.418;2022-10-16T06:16:54;99551.75;;;14.60;85.42
73633;BME280;61927;50.080;14.418;2022-10-16T06:19:20;99562.19;;;14.63;84.98
73633;BME280;61927;50.080;14.418;2022-10-16T06:21:45;99560.50;;;14.62;85.21
73633;BME280;61927;50.080;14.418;2022-10-16T06:24:11;99559.53;;;14.63;84.90
73633;BME280;61927;50.080;14.418;2022-10-16T06:26:37;99566.34;;;14.67;85.00
73633;BME280;61927;50.080;14.418;2022-10-16T06:29:02;99571.69;;;14.67;85.00
73633;BME280;61927;50.080;14.418;2022-10-16T06:31:28;99572.41;;;14.69;84.98
73633;BME280;61927;50.080;14.418;2022-10-16T06:33:56;99578.59;;;14.69;84.56
73633;BME280;61927;50.080;14.418;2022-10-16T06:36:23;99580.31;;;14.70;84.52
73633;BME280;61927;50.080;14.418;2022-10-16T06:38:49;99582.97;;;14.70;84.82
73633;BME280;61927;50.080;14.418;2022-10-16T06:41:17;99594.16;;;14.75;84.66
73633;BME280;61927;50.080;14.418;2022-10-16T06:43:43;99597.44;;;14.79;84.43
73633;BME280;61927;50.080;14.418;2022-10-16T06:46:14;99602.78;;;14.79;84.32
73633;BME280;61927;50.080;14.418;2022-10-16T06:48:41;99604.97;;;14.85;84.25
73633;BME280;61927;50.080;14.418;2022-10-16T06:51:10;99610.31;;;14.85;84.03
73633;BME280;61927;50.080;14.418;2022-10-16T06:53:38;99597.81;;;14.85;83.91
73633;BME280;61927;50.080;14.418;2022-10-16T06:58:33;99611.06;;;14.87;84.21
73633;BME280;61927;50.080;14.418;2022-10-16T07:00:58;99611.78;;;14.89;84.23
73633;BME280;61927;50.080;14.418;2022-10-16T07:03:24;99608.53;;;14.97;83.93
73633;BME280;61927;50.080;14.418;2022-10-16T07:05:49;99610.50;;;15.06;83.41
73633;BME280;61927;50.080;14.418;2022-10-16T07:08:15;99615.59;;;15.09;83.20
73633;BME280;61927;50.080;14.418;2022-10-16T07:10:41;99623.03;;;15.16;82.95
73633;BME280;61927;50.080;14.418;2022-10-16T07:13:06;99628.00;;;15.21;82.74
73633;BME280;61927;50.080;14.418;2022-10-16T07:15:33;99628.75;;;15.23;82.42
73633;BME280;61927;50.080;14.418;2022-10-16T07:17:59;99633.72;;;15.28;82.30
73633;BME280;61927;50.080;14.418;2022-10-16T07:20:24;99632.25;;;15.24;82.29
73633;BME280;61927;50.080;14.418;2022-10-16T07:22:50;99633.34;;;15.21;82.42
73633;BME280;61927;50.080;14.418;2022-10-16T07:25:16;99632.63;;;15.19;82.33
73633;BME280;61927;50.080;14.418;2022-10-16T07:27:42;99641.25;;;15.23;82.42
73633;BME280;61927;50.080;14.418;2022-10-16T07:30:08;99650.97;;;15.24;82.41
73633;BME280;61927;50.080;14.418;2022-10-16T07:32:33;99650.50;;;15.30;82.10
73633;BME280;61927;50.080;14.418;2022-10-16T07:34:59;99647.47;;;15.34;81.86
73633;BME280;61927;50.080;14.418;2022-10-16T07:37:24;99647.22;;;15.37;81.54
73633;BME280;61927;50.080;14.418;2022-10-16T07:39:50;99645.16;;;15.41;81.29
73633;BME280;61927;50.080;14.418;2022-10-16T07:42:15;99656.59;;;15.43;81.69
73633;BME280;61927;50.080;14.418;2022-10-16T07:44:41;99664.63;;;15.54;81.16
73633;BME280;61927;50.080;14.418;2022-10-16T07:47:07;99661.50;;;15.60;80.84
73633;BME280;61927;50.080;14.418;2022-10-16T07:49:32;99654.19;;;15.62;80.79
73633;BME280;61927;50.080;14.418;2022-10-16T07:51:58;99660.75;;;15.69;80.65
73633;BME280;61927;50.080;14.418;2022-10-16T07:54:24;99653.81;;;15.67;80.53
73633;BME280;61927;50.080;14.418;2022-10-16T07:56:49;99658.94;;;15.70;80.70
73633;BME280;61927;50.080;14.418;2022-10-16T07:59:14;99661.38;;;15.73;80.35
73633;BME280;61927;50.080;14.418;2022-10-16T08:01:40;99667.31;;;15.76;79.54
73633;BME280;61927;50.080;14.418;2022-10-16T08:04:08;99664.16;;;15.71;79.89
73633;BME280;61927;50.080;14.418;2022-10-16T08:06:36;99661.25;;;15.74;80.00
73633;BME280;61927;50.080;14.418;2022-10-16T08:09:03;99666.22;;;15.79;79.89
73633;BME280;61927;50.080;14.418;2022-10-16T08:11:28;99664.66;;;15.76;79.69
73633;BME280;61927;50.080;14.418;2022-10-16T08:13:54;99661.59;;;15.81;79.93
73633;BME280;61927;50.080;14.418;2022-10-16T08:16:19;99658.06;;;15.80;79.93
73633;BME280;61927;50.080;14.418;2022-10-16T08:18:45;99658.56;;;15.86;79.54
73633;BME280;61927;50.080;14.418;2022-10-16T08:21:16;99658.31;;;15.89;79.40
73633;BME280;61927;50.080;14.418;2022-10-16T08:23:42;99659.53;;;15.96;79.22
73633;BME280;61927;50.080;14.418;2022-10-16T08:26:09;99660.47;;;16.06;79.07
73633;BME280;61927;50.080;14.418;2022-10-16T08:28:35;99660.97;;;16.11;78.45
73633;BME280;61927;50.080;14.418;2022-10-16T08:31:14;99667.38;;;16.20;78.25
73633;BME280;61927;50.080;14.418;2022-10-16T08:33:42;99669.34;;;16.18;78.42
73633;BME280;61927;50.080;14.418;2022-10-16T08:36:10;99669.81;;;16.23;78.14
73633;BME280;61927;50.080;14.418;2022-10-16T08:38:36;99675.28;;;16.32;77.92
73633;BME280;61927;50.080;14.418;2022-10-16T08:41:29;99679.88;;;16.41;77.75
73633;BME280;61927;50.080;14.418;2022-10-16T08:47:02;99696.78;;;16.42;77.37
73633;BME280;61927;50.080;14.418;2022-10-16T08:49:33;99704.44;;;16.46;77.62
73633;BME280;61927;50.080;14.418;2022-10-16T08:51:59;99705.25;;;16.58;77.09
73633;BME280;61927;50.080;14.418;2022-10-16T08:57:11;99703.44;;;16.70;76.06
73633;BME280;61927;50.080;14.418;2022-10-16T08:59:38;99704.16;;;16.72;76.31
73633;BME280;61927;50.080;14.418;2022-10-16T09:02:22;99704.84;;;16.85;75.75
73633;BME280;61927;50.080;14.418;2022-10-16T09:05:01;99700.19;;;16.87;75.75
73633;BME280;61927;50.080;14.418;2022-10-16T09:07:36;99697.25;;;16.90;75.69
73633;BME280;61927;50.080;14.418;2022-10-16T09:12:52;99690.00;;;17.02;75.39
73633;BME280;61927;50.080;14.418;2022-10-16T09:15:45;99704.13;;;17.04;75.22
73633;BME280;61927;50.080;14.418;2022-10-16T09:20:51;99687.13;;;16.94;76.00
73633;BME280;61927;50.080;14.418;2022-10-16T09:23:34;99699.34;;;16.87;75.66
73633;BME280;61927;50.080;14.418;2022-10-16T09:26:01;99696.72;;;16.75;76.33
73633;BME280;61927;50.080;14.418;2022-10-16T09:28:27;99692.00;;;16.68;76.76
73633;BME280;61927;50.080;14.418;2022-10-16T09:30:53;99696.50;;;16.67;76.74
73633;BME280;61927;50.080;14.418;2022-10-16T09:33:23;99691.00;;;16.69;77.13
73633;BME280;61927;50.080;14.418;2022-10-16T09:35:52;99699.06;;;16.69;77.35
73633;BME280;61927;50.080;14.418;2022-10-16T09:38:28;99707.19;;;16.78;77.19
73633;BME280;61927;50.080;14.418;2022-10-16T09:40:55;99709.09;;;16.88;77.09
73633;BME280;61927;50.080;14.418;2022-10-16T09:46:30;99711.91;;;17.07;76.64
73633;BME280;61927;50.080;14.418;2022-10-16T09:48:59;99707.94;;;17.22;76.21
73633;BME280;61927;50.080;14.418;2022-10-16T09:54:16;99715.19;;;17.52;75.63
73633;BME280;61927;50.080;14.418;2022-10-16T09:56:42;99721.72;;;17.59;74.96
73633;BME280;61927;50.080;14.418;2022-10-16T09:59:20;99725.00;;;17.63;74.63
73633;BME280;61927;50.080;14.418;2022-10-16T10:01:48;99725.63;;;17.66;75.05
73633;BME280;61927;50.080;14.418;2022-10-16T10:04:15;99719.00;;;17.70;74.25
73633;BME280;61927;50.080;14.418;2022-10-16T10:06:44;99723.81;;;17.77;73.85
73633;BME280;61927;50.080;14.418;2022-10-16T10:09:26;99715.63;;;17.78;74.04
73633;BME280;61927;50.080;14.418;2022-10-16T10:11:56;99725.84;;;17.84;73.26
73633;BME280;61927;50.080;14.418;2022-10-16T10:14:45;99722.16;;;17.85;73.88
73633;BME280;61927;50.080;14.418;2022-10-16T10:17:17;99722.88;;;17.87;73.80
73633;BME280;61927;50.080;14.418;2022-10-16T10:19:55;99718.69;;;17.94;72.90
73633;BME280;61927;50.080;14.418;2022-10-16T10:36:14;99713.31;;;18.44;71.44
73633;BME280;61927;50.080;14.418;2022-10-16T10:44:09;99707.38;;;18.50;70.52
73633;BME280;61927;50.080;14.418;2022-10-16T10:46:47;99699.19;;;18.52;70.50
73633;BME280;61927;50.080;14.418;2022-10-16T10:54:50;99700.78;;;18.64;70.39
73633;BME280;61927;50.080;14.418;2022-10-16T11:00:28;99698.13;;;18.83;69.93
73633;BME280;61927;50.080;14.418;2022-10-16T11:05:56;99708.16;;;19.00;69.24
73633;BME280;61927;50.080;14.418;2022-10-16T11:08:30;99703.50;;;19.02;69.10
73633;BME280;61927;50.080;14.418;2022-10-16T11:11:01;99707.44;;;19.08;69.47
73633;BME280;61927;50.080;14.418;2022-10-16T11:15:58;99704.03;;;19.25;68.89
73633;BME280;61927;50.080;14.418;2022-10-16T11:18:30;99708.56;;;19.34;68.44
73633;BME280;61927;50.080;14.418;2022-10-16T11:21:02;99704.88;;;19.35;68.92
73633;BME280;61927;50.080;14.418;2022-10-16T11:23:35;99705.13;;;19.42;69.09
73633;BME280;61927;50.080;14.418;2022-10-16T11:26:06;99711.09;;;19.36;68.68
73633;BME280;61927;50.080;14.418;2022-10-16T11:28:45;99706.16;;;19.31;69.10
73633;BME280;61927;50.080;14.418;2022-10-16T11:34:17;99697.41;;;19.10;70.14
73633;BME280;61927;50.080;14.418;2022-10-16T11:36:53;99702.78;;;19.00;70.33
73633;BME280;61927;50.080;14.418;2022-10-16T11:39:24;99699.53;;;18.97;69.77
73633;BME280;61927;50.080;14.418;2022-10-16T11:41:54;99702.22;;;18.97;69.01
73633;BME280;61927;50.080;14.418;2022-10-16T11:49:50;99706.59;;;19.27;65.85
73633;BME280;61927;50.080;14.418;2022-10-16T11:55:23;99702.88;;;19.38;65.58
73633;BME280;61927;50.080;14.418;2022-10-16T11:57:57;99700.72;;;19.51;64.21
73633;BME280;61927;50.080;14.418;2022-10-16T12:00:28;99702.56;;;19.60;64.04
73633;BME280;61927;50.080;14.418;2022-10-16T12:08:16;99701.53;;;19.80;64.04
73633;BME280;61927;50.080;14.418;2022-10-16T12:10:46;99703.06;;;19.83;64.60
73633;BME280;61927;50.080;14.418;2022-10-16T12:13:35;99704.47;;;19.87;65.22
73633;BME280;61927;50.080;14.418;2022-10-16T12:18:44;99698.75;;;19.99;66.24
73633;BME280;61927;50.080;14.418;2022-10-16T12:21:12;99695.47;;;20.06;66.06
73633;BME280;61927;50.080;14.418;2022-10-16T12:26:27;99698.75;;;20.27;65.20
73633;BME280;61927;50.080;14.418;2022-10-16T12:28:55;99690.22;;;20.31;65.18
73633;BME280;61927;50.080;14.418;2022-10-16T12:31:22;99689.22;;;20.32;65.08
73633;BME280;61927;50.080;14.418;2022-10-16T12:34:01;99688.91;;;20.36;64.97
73633;BME280;61927;50.080;14.418;2022-10-16T12:36:33;99685.06;;;20.38;64.99
73633;BME280;61927;50.080;14.418;2022-10-16T12:39:00;99687.91;;;20.37;64.98
73633;BME280;61927;50.080;14.418;2022-10-16T12:41:31;99687.50;;;20.31;65.24
73633;BME280;61927;50.080;14.418;2022-10-16T12:44:00;99684.34;;;20.46;64.63
73633;BME280;61927;50.080;14.418;2022-10-16T12:49:50;99676.03;;;20.29;65.31
73633;BME280;61927;50.080;14.418;2022-10-16T12:51:51;99680.25;;;20.14;66.07
73633;BME280;61927;50.080;14.418;2022-10-16T12:54:28;99679.44;;;20.04;65.45
73633;BME280;61927;50.080;14.418;2022-10-16T13:00:26;99686.53;;;20.05;64.58
73633;BME280;61927;50.080;14.418;2022-10-16T13:19:26;99703.94;;;20.38;63.79
73633;BME280;61927;50.080;14.418;2022-10-16T13:22:01;99709.91;;;20.32;63.94
73633;BME280;61927;50.080;14.418;2022-10-16T13:27:45;99718.31;;;20.29;64.10
73633;BME280;61927;50.080;14.418;2022-10-16T13:30:37;99712.38;;;20.25;63.92
73633;BME280;61927;50.080;14.418;2022-10-16T13:33:07;99720.69;;;20.32;63.74
73633;BME280;61927;50.080;14.418;2022-10-16T13:35:47;99725.09;;;20.33;63.89
73633;BME280;61927;50.080;14.418;2022-10-16T13:38:16;99726.25;;;20.30;64.17
73633;BME280;61927;50.080;14.418;2022-10-16T13:40:53;99725.53;;;20.28;64.36
73633;BME280;61927;50.080;14.418;2022-10-16T13:43:22;99723.00;;;20.27;64.37
73633;BME280;61927;50.080;14.418;2022-10-16T13:46:06;99723.00;;;20.27;64.40
73633;BME280;61927;50.080;14.418;2022-10-16T13:48:33;99728.84;;;20.22;64.28
73633;BME280;61927;50.080;14.418;2022-10-16T13:51:11;99727.28;;;20.20;64.59
73633;BME280;61927;50.080;14.418;2022-10-16T13:53:38;99730.97;;;20.19;64.21
73633;BME280;61927;50.080;14.418;2022-10-16T13:56:06;99730.84;;;20.20;64.42
73633;BME280;61927;50.080;14.418;2022-10-16T13:58:33;99728.28;;;20.19;64.78
73633;BME280;61927;50.080;14.418;2022-10-16T14:01:02;99727.59;;;20.17;64.71
73633;BME280;61927;50.080;14.418;2022-10-16T14:03:29;99733.56;;;20.11;64.98
73633;BME280;61927;50.080;14.418;2022-10-16T14:05:58;99732.16;;;20.07;65.04
73633;BME280;61927;50.080;14.418;2022-10-16T14:08:25;99733.16;;;20.06;64.97
73633;BME280;61927;50.080;14.418;2022-10-16T14:10:55;99740.56;;;20.04;65.24
73633;BME280;61927;50.080;14.418;2022-10-16T14:13:30;99739.16;;;19.99;65.40
73633;BME280;61927;50.080;14.418;2022-10-16T14:16:01;99732.91;;;19.99;65.47
73633;BME280;61927;50.080;14.418;2022-10-16T14:18:28;99740.84;;;20.00;65.37
73633;BME280;61927;50.080;14.418;2022-10-16T14:20:54;99734.91;;;19.97;65.66
73633;BME280;61927;50.080;14.418;2022-10-16T14:23:28;99742.13;;;19.96;65.43
73633;BME280;61927;50.080;14.418;2022-10-16T14:28:34;99747.97;;;19.92;65.79
73633;BME280;61927;50.080;14.418;2022-10-16T14:31:01;99737.50;;;19.89;66.06
73633;BME280;61927;50.080;14.418;2022-10-16T14:38:34;99737.53;;;19.79;66.27
73633;BME280;61927;50.080;14.418;2022-10-16T14:41:00;99733.28;;;19.77;66.44
73633;BME280;61927;50.080;14.418;2022-10-16T14:43:39;99740.34;;;19.78;66.59
73633;BME280;61927;50.080;14.418;2022-10-16T14:46:12;99735.97;;;19.77;66.46
73633;BME280;61927;50.080;14.418;2022-10-16T14:48:49;99738.66;;;19.77;66.77
73633;BME280;61927;50.080;14.418;2022-10-16T14:51:17;99730.72;;;19.75;67.21
73633;BME280;61927;50.080;14.418;2022-10-16T14:53:43;99733.13;;;19.78;67.02
73633;BME280;61927;50.080;14.418;2022-10-16T14:56:15;99732.00;;;19.81;67.02